This is the latest recevied weather packets stored in our database for station/object E27IHO-13. If no packets are shown the sender has not sent any weather packets the latest 10 day(s).
| Time | Temp. | Humidity | Pressure | Rain* | Wind** | Luminosity | Snow |
|---|---|---|---|---|---|---|---|
| 1777956539 | 33.33° C | 56% | 1011 hPa | - | - | 0 W/m² | - |
| 1777956217 | 33.33° C | 55% | 1012 hPa | - | - | 0 W/m² | - |
| 1777955895 | 33.89° C | 54% | 1012 hPa | - | - | 0 W/m² | - |
| 1777955573 | 33.89° C | 54% | 1012 hPa | - | - | 0 W/m² | - |
| 1777955251 | 33.89° C | 52% | 1012 hPa | - | - | 0 W/m² | - |
| 1777915506 | 23.89° C | 99% | 1012 hPa | - | - | 0 W/m² | - |
| 1777915184 | 23.89° C | 99% | 1013 hPa | - | - | 0 W/m² | - |
| 1777914862 | 23.89° C | 99% | 1013 hPa | - | - | 0 W/m² | - |
| 1777907892 | 28.33° C | 76% | 1012 hPa | - | - | 0 W/m² | - |
| 1777907570 | 28.33° C | 76% | 1012 hPa | - | - | 0 W/m² | - |
| 1777907248 | 28.33° C | 76% | 1012 hPa | - | - | 0 W/m² | - |
| 1777906926 | 28.33° C | 75% | 1012 hPa | - | - | 0 W/m² | - |
| 1777906604 | 27.78° C | 75% | 1012 hPa | - | - | 0 W/m² | - |
| 1777906282 | 28.33° C | 75% | 1012 hPa | - | - | 0 W/m² | - |
| 1777905960 | 28.33° C | 75% | 1012 hPa | - | - | 0 W/m² | - |
| 1777905638 | 28.33° C | 74% | 1011 hPa | - | - | 0 W/m² | - |
| 1777905316 | 27.78° C | 75% | 1011 hPa | - | - | 0 W/m² | - |
| 1777904994 | 27.78° C | 75% | 1011 hPa | - | - | 0 W/m² | - |
| 1777904672 | 27.78° C | 75% | 1011 hPa | - | - | 0 W/m² | - |
| 1777904350 | 27.78° C | 75% | 1011 hPa | - | - | 0 W/m² | - |
| 1777904029 | 28.33° C | 75% | 1011 hPa | - | - | 0 W/m² | - |
| 1777903706 | 28.33° C | 76% | 1011 hPa | - | - | 0 W/m² | - |
| 1777885042 | 29.44° C | 66% | 1008 hPa | - | - | 0 W/m² | - |
| 1777884720 | 29.44° C | 65% | 1007 hPa | - | - | 0 W/m² | - |
| 1777884398 | 29.44° C | 67% | 1007 hPa | - | - | 0 W/m² | - |
* Rain since midnight (hover to see other rain measurements)
** Current wind speed in m/s (hover to see current wind gust speed)